createdAt,value
2022-08-05T00:00:50.364Z,101654.34
2022-08-05T00:03:17.065Z,101672.38
2022-08-05T00:06:05.046Z,101666.88
2022-08-05T00:08:34.570Z,101671.66
2022-08-05T00:11:04.288Z,101670.47
2022-08-05T00:13:39.052Z,101677.59
2022-08-05T00:16:12.646Z,101677.59
2022-08-05T00:18:41.072Z,101678.03
2022-08-05T00:21:09.664Z,101665.06
2022-08-05T00:23:46.643Z,101663.50
2022-08-05T00:26:20.637Z,101658.38
2022-08-05T00:28:47.129Z,101663.06
2022-08-05T00:31:16.052Z,101657.56
2022-08-05T00:34:56.408Z,101662.66
2022-08-05T00:37:11.701Z,101653.59
2022-08-05T00:39:15.658Z,101648.56
2022-08-05T00:41:51.966Z,101657.22
2022-08-05T00:44:21.983Z,101667.09
2022-08-05T00:46:54.116Z,101664.72
2022-08-05T00:49:32.331Z,101660.03
2022-08-05T00:51:59.938Z,101655.34
2022-08-05T00:54:28.205Z,101663.97
2022-08-05T00:56:56.939Z,101663.94
2022-08-05T00:59:23.803Z,101674.22
2022-08-05T01:01:51.099Z,101678.94
2022-08-05T01:04:20.124Z,101667.53
2022-08-05T01:06:53.064Z,101652.66
2022-08-05T01:09:20.054Z,101656.16
2022-08-05T01:11:49.486Z,101661.25
2022-08-05T01:14:30.152Z,101665.59
2022-08-05T01:17:04.739Z,101672.66
2022-08-05T01:20:02.124Z,101669.13
2022-08-05T01:22:40.496Z,101670.28
2022-08-05T01:25:41.063Z,101678.19
2022-08-05T01:28:24.449Z,101685.28
2022-08-05T01:31:01.187Z,101672.31
2022-08-05T01:33:35.483Z,101673.13
2022-08-05T01:36:12.718Z,101681.81
2022-08-05T01:38:41.146Z,101672.78
2022-08-05T01:41:08.445Z,101677.91
2022-08-05T01:43:35.747Z,101686.97
2022-08-05T01:46:07.403Z,101699.53
2022-08-05T01:48:45.017Z,101697.53
2022-08-05T01:51:18.524Z,101706.16
2022-08-05T01:53:57.605Z,101712.44
2022-08-05T01:58:13.576Z,101714.38
2022-08-05T01:59:20.677Z,101687.66
2022-08-05T02:01:49.652Z,101686.88
2022-08-05T02:04:20.441Z,101688.06
2022-08-05T02:06:47.890Z,101696.69
2022-08-05T02:09:14.596Z,101686.91
2022-08-05T02:11:52.616Z,101688.44
2022-08-05T02:14:32.116Z,101677.47
2022-08-05T02:17:06.760Z,101676.31
2022-08-05T02:19:47.215Z,101684.59
2022-08-05T02:22:28.396Z,101690.88
2022-08-05T02:25:08.612Z,101697.16
2022-08-05T02:27:59.520Z,101683.78
2022-08-05T02:30:38.788Z,101689.28
2022-08-05T02:33:24.169Z,101683.81
2022-08-05T02:35:58.930Z,101686.16
2022-08-05T02:38:34.995Z,101692.84
2022-08-05T02:41:06.391Z,101685.78
2022-08-05T02:44:02.815Z,101675.97
2022-08-05T02:46:30.601Z,101673.63
2022-08-05T02:48:57.725Z,101675.22
2022-08-05T02:51:28.158Z,101679.91
2022-08-05T02:54:36.207Z,101674.41
2022-08-05T02:57:01.931Z,101669.69
2022-08-05T02:59:30.408Z,101674.00
2022-08-05T03:02:17.819Z,101664.19
2022-08-05T03:04:45.737Z,101657.56
2022-08-05T03:07:17.613Z,101669.69
2022-08-05T03:10:00.084Z,101670.47
2022-08-05T03:12:36.591Z,101676.38
2022-08-05T03:15:06.762Z,101679.13
2022-08-05T03:17:34.802Z,101676.78
2022-08-05T03:20:09.070Z,101683.81
2022-08-05T03:22:37.148Z,101686.16
2022-08-05T03:25:32.834Z,101690.50
2022-08-05T03:27:59.980Z,101688.13
2022-08-05T03:30:33.722Z,101682.25
2022-08-05T03:33:03.191Z,101683.44
2022-08-05T03:35:34.015Z,101680.31
2022-08-05T03:38:07.179Z,101679.53
2022-08-05T03:40:34.189Z,101683.44
2022-08-05T03:43:58.376Z,101673.63
2022-08-05T03:45:57.176Z,101678.34
2022-08-05T03:48:24.978Z,101681.47
2022-08-05T03:50:59.163Z,101685.38
2022-08-05T03:55:51.364Z,101680.69
2022-08-05T03:56:46.510Z,101689.72
2022-08-05T03:59:47.682Z,101701.09
2022-08-05T04:02:38.814Z,101691.28
2022-08-05T04:05:09.883Z,101694.03
2022-08-05T04:07:51.480Z,101696.41
2022-08-05T04:10:33.294Z,101688.16
2022-08-05T04:13:05.288Z,101685.78
2022-08-05T04:15:33.298Z,101687.75
2022-08-05T04:18:07.432Z,101687.34
2022-08-05T04:20:36.012Z,101691.69
2022-08-05T04:23:02.537Z,101696.38
2022-08-05T04:25:49.425Z,101696.78
2022-08-05T04:28:17.213Z,101699.53
2022-08-05T04:30:44.034Z,101696.78
2022-08-05T04:33:10.549Z,101699.91
2022-08-05T04:36:11.270Z,101697.94
2022-08-05T04:38:39.692Z,101700.31
2022-08-05T04:41:07.235Z,101704.63
2022-08-05T04:43:33.978Z,101699.91
2022-08-05T04:46:00.788Z,101703.44
2022-08-05T04:48:28.376Z,101692.06
2022-08-05T04:51:02.669Z,101691.69
2022-08-05T04:53:33.489Z,101700.69
2022-08-05T04:56:32.832Z,101704.22
2022-08-05T04:58:49.319Z,101705.00
2022-08-05T05:01:15.937Z,101692.84
2022-08-05T05:04:02.292Z,101701.09
2022-08-05T05:06:36.100Z,101694.44
2022-08-05T05:09:07.790Z,101710.09
2022-08-05T05:11:42.172Z,101713.66
2022-08-05T05:14:27.885Z,101706.19
2022-08-05T05:16:58.856Z,101712.06
2022-08-05T05:19:27.506Z,101711.28
2022-08-05T05:22:23.636Z,101711.28
2022-08-05T05:24:57.527Z,101714.44
2022-08-05T05:27:44.137Z,101709.72
2022-08-05T05:30:29.394Z,101715.19
2022-08-05T05:33:03.593Z,101705.41
2022-08-05T05:35:42.571Z,101712.88
2022-08-05T05:38:13.343Z,101712.47
2022-08-05T05:40:49.762Z,101712.84
2022-08-05T05:43:22.135Z,101715.22
2022-08-05T05:45:54.802Z,101717.59
2022-08-05T05:48:27.272Z,101715.22
2022-08-05T05:50:54.486Z,101719.91
2022-08-05T05:53:22.680Z,101721.50
2022-08-05T05:55:52.281Z,101727.75
2022-08-05T05:58:31.613Z,101729.28
2022-08-05T06:01:02.418Z,101724.19
2022-08-05T06:04:01.161Z,101726.81
2022-08-05T06:06:33.012Z,101732.53
2022-08-05T06:09:01.307Z,101729.50
2022-08-05T06:11:30.431Z,101736.25
2022-08-05T06:13:56.889Z,101738.19
2022-08-05T06:16:29.706Z,101737.72
2022-08-05T06:19:01.884Z,101735.81
2022-08-05T06:21:36.602Z,101741.69
2022-08-05T06:24:04.326Z,101739.31
2022-08-05T06:26:31.810Z,101742.81
2022-08-05T06:29:03.667Z,101745.34
2022-08-05T06:31:46.784Z,101742.59
2022-08-05T06:34:13.739Z,101746.72
2022-08-05T06:36:57.019Z,101742.41
2022-08-05T06:39:27.275Z,101741.63
2022-08-05T06:41:56.620Z,101743.56
2022-08-05T06:44:25.305Z,101736.72
2022-08-05T06:46:52.638Z,101739.69
2022-08-05T06:49:50.560Z,101742.94
2022-08-05T06:52:07.609Z,101766.19
2022-08-05T06:54:54.192Z,101753.44
2022-08-05T06:58:03.092Z,101755.88
2022-08-05T07:00:07.842Z,101754.00
2022-08-05T07:02:44.122Z,101757.44
2022-08-05T07:05:18.544Z,101769.25
2022-08-05T07:07:48.855Z,101779.38
2022-08-05T07:10:16.483Z,101778.69
2022-08-05T07:13:02.598Z,101767.06
2022-08-05T07:16:00.998Z,101780.88
2022-08-05T07:18:31.542Z,101784.91
2022-08-05T07:20:58.486Z,101787.72
2022-08-05T07:23:31.477Z,101786.53
2022-08-05T07:25:58.093Z,101784.66
2022-08-05T07:28:25.250Z,101798.50
2022-08-05T07:30:54.914Z,101805.19
2022-08-05T07:33:37.168Z,101803.41
2022-08-05T07:36:20.568Z,101798.28
2022-08-05T07:38:48.947Z,101809.38
2022-08-05T07:42:13.507Z,101810.13
2022-08-05T07:44:14.523Z,101799.75
2022-08-05T07:46:48.635Z,101805.78
2022-08-05T07:49:18.303Z,101805.81
2022-08-05T07:51:53.306Z,101814.69
2022-08-05T07:54:30.866Z,101826.44
2022-08-05T07:57:17.695Z,101821.00
2022-08-05T07:59:48.897Z,101813.84
2022-08-05T08:02:17.594Z,101820.78
2022-08-05T08:04:46.726Z,101826.69
2022-08-05T08:07:13.888Z,101826.22
2022-08-05T08:09:41.770Z,101830.69
2022-08-05T08:12:20.218Z,101836.78
2022-08-05T08:14:55.329Z,101833.75
2022-08-05T08:17:21.954Z,101824.63
2022-08-05T08:20:21.309Z,101832.75
2022-08-05T08:22:35.462Z,101831.97
2022-08-05T08:25:03.487Z,101840.31
2022-08-05T08:27:35.673Z,101841.88
2022-08-05T08:30:27.602Z,101842.41
2022-08-05T08:32:54.197Z,101836.81
2022-08-05T08:35:21.182Z,101844.69
2022-08-05T08:37:54.389Z,101859.41
2022-08-05T08:40:23.731Z,101854.84
2022-08-05T08:42:53.007Z,101859.75
2022-08-05T08:45:27.013Z,101861.81
2022-08-05T08:48:12.364Z,101867.38
2022-08-05T08:51:22.157Z,101860.81
2022-08-05T08:53:37.817Z,101865.50
2022-08-05T08:56:07.062Z,101869.59
2022-08-05T08:58:37.491Z,101872.56
2022-08-05T09:01:16.399Z,101871.59
2022-08-05T09:03:47.573Z,101873.97
2022-08-05T09:06:20.009Z,101875.41
2022-08-05T09:08:48.005Z,101871.69
2022-08-05T09:11:15.137Z,101877.78
2022-08-05T09:14:09.251Z,101887.56
2022-08-05T09:16:32.405Z,101885.41
2022-08-05T09:18:59.274Z,101888.38
2022-08-05T09:22:21.939Z,101894.03
2022-08-05T09:24:15.625Z,101888.50
2022-08-05T09:26:46.329Z,101891.75
2022-08-05T09:29:18.843Z,101896.91
2022-08-05T09:32:40.933Z,101897.59
2022-08-05T09:34:56.112Z,101906.44
2022-08-05T09:38:16.723Z,101899.34
2022-08-05T09:40:30.893Z,101912.75
2022-08-05T09:42:59.125Z,101924.75
2022-08-05T09:46:07.571Z,101922.19
2022-08-05T09:48:34.428Z,101930.75
2022-08-05T09:51:02.957Z,101932.50
2022-08-05T09:53:53.509Z,101938.28
2022-08-05T09:56:33.543Z,101932.41
2022-08-05T09:59:04.197Z,101938.59
2022-08-05T10:01:33.749Z,101950.66
2022-08-05T10:04:10.314Z,101950.31
2022-08-05T10:06:40.398Z,101945.31
2022-08-05T10:09:27.748Z,101949.59
2022-08-05T10:12:30.238Z,101949.63
2022-08-05T10:15:13.733Z,101947.41
2022-08-05T10:17:47.444Z,101942.75
2022-08-05T10:20:23.845Z,101942.78
2022-08-05T10:22:51.880Z,101947.66
2022-08-05T10:25:19.639Z,101947.84
2022-08-05T10:28:13.509Z,101948.06
2022-08-05T10:31:20.784Z,101953.50
2022-08-05T10:33:25.706Z,101950.28
2022-08-05T10:35:59.814Z,101947.66
2022-08-05T10:38:29.144Z,101947.00
2022-08-05T10:41:12.414Z,101957.16
2022-08-05T10:43:57.655Z,101961.50
2022-08-05T10:46:43.803Z,101965.91
2022-08-05T10:49:16.920Z,101965.44
2022-08-05T10:51:59.857Z,101967.28
2022-08-05T10:54:47.229Z,101974.41
2022-08-05T10:57:32.348Z,101981.06
2022-08-05T11:00:24.390Z,101984.16
2022-08-05T11:03:25.285Z,101991.56
2022-08-05T11:06:08.564Z,101999.91
2022-08-05T11:09:13.148Z,102001.84
2022-08-05T11:11:52.474Z,102007.41
2022-08-05T11:14:57.438Z,102006.75
2022-08-05T11:17:59.417Z,102001.00
2022-08-05T11:20:39.001Z,102009.00
2022-08-05T11:23:33.387Z,102003.41
2022-08-05T11:26:17.257Z,102003.97
2022-08-05T11:29:06.729Z,102012.78
2022-08-05T11:31:56.448Z,102014.63
2022-08-05T11:34:37.630Z,102023.66
2022-08-05T11:37:06.259Z,102026.13
2022-08-05T11:39:55.476Z,102034.66
2022-08-05T11:42:27.916Z,102033.75
2022-08-05T11:45:03.072Z,102038.06
2022-08-05T11:47:48.662Z,102048.66
2022-08-05T11:50:17.369Z,102038.34
2022-08-05T11:52:46.093Z,102050.50
2022-08-05T11:55:15.513Z,102051.50
2022-08-05T11:58:09.840Z,102048.19
2022-08-05T12:00:37.984Z,102053.94
2022-08-05T12:03:29.064Z,102064.09
2022-08-05T12:06:03.237Z,102059.63
2022-08-05T12:08:33.320Z,102067.75
2022-08-05T12:11:05.860Z,102065.31
2022-08-05T12:13:48.374Z,102076.56
2022-08-05T12:16:19.300Z,102066.66
2022-08-05T12:18:49.578Z,102082.34
2022-08-05T12:21:33.029Z,102074.31
2022-08-05T12:24:08.615Z,102081.91
2022-08-05T12:26:36.546Z,102087.41
2022-08-05T12:29:09.641Z,102085.81
2022-08-05T12:31:46.151Z,102086.81
2022-08-05T12:34:20.519Z,102096.19
2022-08-05T12:36:49.824Z,102095.94
2022-08-05T12:39:17.649Z,102098.19
2022-08-05T12:41:45.188Z,102110.84
2022-08-05T12:44:33.021Z,102108.00
2022-08-05T12:47:01.954Z,102103.22
2022-08-05T12:50:03.065Z,102112.91
2022-08-05T12:52:39.093Z,102115.66
2022-08-05T12:55:22.184Z,102120.25
2022-08-05T12:58:51.272Z,102121.69
2022-08-05T13:02:01.166Z,102120.44
2022-08-05T13:03:32.360Z,102129.91
2022-08-05T13:05:59.091Z,102126.53
2022-08-05T13:08:30.336Z,102121.13
2022-08-05T13:11:02.005Z,102125.16
2022-08-05T13:14:04.841Z,102124.34
2022-08-05T13:16:17.433Z,102135.25
2022-08-05T13:18:57.617Z,102127.75
2022-08-05T13:21:28.589Z,102129.94
2022-08-05T13:24:08.923Z,102131.63
2022-08-05T13:26:35.827Z,102141.47
2022-08-05T13:29:02.257Z,102133.81
2022-08-05T13:32:02.804Z,102139.09
2022-08-05T13:34:25.043Z,102140.19
2022-08-05T13:36:53.781Z,102141.72
2022-08-05T13:40:12.729Z,102147.03
2022-08-05T13:42:08.174Z,102157.81
2022-08-05T13:44:45.076Z,102152.31
2022-08-05T13:47:35.783Z,102153.13
2022-08-05T13:50:04.464Z,102156.72
2022-08-05T13:52:35.268Z,102166.44
2022-08-05T13:55:07.869Z,102156.56
2022-08-05T13:57:51.417Z,102157.28
2022-08-05T14:00:26.861Z,102159.22
2022-08-05T14:02:55.108Z,102150.75
2022-08-05T14:05:48.220Z,102155.47
2022-08-05T14:08:20.316Z,102168.06
2022-08-05T14:10:48.231Z,102168.69
2022-08-05T14:13:17.625Z,102179.28
2022-08-05T14:16:08.517Z,102174.69
2022-08-05T14:18:30.884Z,102172.81
2022-08-05T14:23:28.107Z,102179.22
2022-08-05T14:26:02.793Z,102185.38
2022-08-05T14:28:31.569Z,102192.19
2022-08-05T14:31:00.584Z,102191.47
2022-08-05T14:33:57.081Z,102187.19
2022-08-05T14:36:14.321Z,102196.91
2022-08-05T14:38:40.745Z,102202.38
2022-08-05T14:41:08.213Z,102203.09
2022-08-05T14:43:57.485Z,102199.59
2022-08-05T14:46:28.157Z,102199.94
2022-08-05T14:48:57.653Z,102197.72
2022-08-05T14:51:24.373Z,102203.97
2022-08-05T14:54:26.979Z,102196.31
2022-08-05T14:56:46.805Z,102203.06
2022-08-05T14:59:14.418Z,102211.53
2022-08-05T15:01:49.099Z,102207.81
2022-08-05T15:04:20.632Z,102207.00
2022-08-05T15:06:50.920Z,102203.25
2022-08-05T15:09:50.622Z,102208.88
2022-08-05T15:12:06.691Z,102210.19
2022-08-05T15:14:48.381Z,102211.16
2022-08-05T15:17:47.231Z,102224.25
2022-08-05T15:20:18.886Z,102227.69
2022-08-05T15:22:54.432Z,102225.41
2022-08-05T15:25:40.679Z,102223.00
2022-08-05T15:28:14.583Z,102227.00
2022-08-05T15:30:43.345Z,102236.88
2022-08-05T15:33:12.938Z,102225.91
2022-08-05T15:35:59.602Z,102238.41
2022-08-05T15:38:34.104Z,102233.25
2022-08-05T15:41:23.523Z,102233.38
2022-08-05T15:43:49.530Z,102230.72
2022-08-05T15:46:16.153Z,102234.13
2022-08-05T15:48:52.700Z,102237.78
2022-08-05T15:52:10.105Z,102242.78
2022-08-05T15:54:16.932Z,102238.19
2022-08-05T15:56:43.642Z,102222.69
2022-08-05T15:59:21.709Z,102234.97
2022-08-05T16:01:52.634Z,102244.09
2022-08-05T16:04:20.498Z,102235.88
2022-08-05T16:06:52.449Z,102243.13
2022-08-05T16:09:19.000Z,102247.69
2022-08-05T16:11:52.782Z,102246.66
2022-08-05T16:14:19.913Z,102247.81
2022-08-05T16:16:47.385Z,102250.72
2022-08-05T16:19:18.782Z,102266.34
2022-08-05T16:22:00.503Z,102260.53
2022-08-05T16:24:40.650Z,102264.69
2022-08-05T16:27:08.615Z,102252.00
2022-08-05T16:29:37.492Z,102269.88
2022-08-05T16:32:06.649Z,102275.53
2022-08-05T16:34:36.508Z,102278.81
2022-08-05T16:38:02.492Z,102274.19
2022-08-05T16:40:05.138Z,102279.72
2022-08-05T16:42:36.515Z,102288.41
2022-08-05T16:46:03.672Z,102285.31
2022-08-05T16:47:56.442Z,102292.38
2022-08-05T16:50:26.185Z,102292.34
2022-08-05T16:52:52.817Z,102298.84
2022-08-05T16:55:22.822Z,102295.41
2022-08-05T16:58:00.097Z,102292.97
2022-08-05T17:00:34.639Z,102291.78
2022-08-05T17:03:15.143Z,102288.19
2022-08-05T17:05:50.258Z,102292.81
2022-08-05T17:08:35.791Z,102305.47
2022-08-05T17:11:08.818Z,102309.53
2022-08-05T17:13:37.714Z,102301.88
2022-08-05T17:16:29.848Z,102303.41
2022-08-05T17:18:57.240Z,102308.91
2022-08-05T17:21:23.989Z,102307.09
2022-08-05T17:24:04.370Z,102312.22
2022-08-05T17:26:35.468Z,102314.13
2022-08-05T17:29:07.570Z,102309.78
2022-08-05T17:31:57.295Z,102315.66
2022-08-05T17:34:32.116Z,102324.47
2022-08-05T17:37:00.175Z,102325.00
2022-08-05T17:39:33.248Z,102323.97
2022-08-05T17:42:17.809Z,102335.41
2022-08-05T17:44:50.721Z,102336.69
2022-08-05T17:47:22.887Z,102336.69
2022-08-05T17:49:52.055Z,102338.34
2022-08-05T17:52:30.803Z,102352.16
2022-08-05T17:54:57.745Z,102345.50
2022-08-05T17:57:24.688Z,102359.25
2022-08-05T18:00:05.459Z,102361.25
2022-08-05T18:02:35.877Z,102364.41
2022-08-05T18:05:07.763Z,102361.22
2022-08-05T18:07:41.351Z,102372.66
2022-08-05T18:10:20.425Z,102370.69
2022-08-05T18:12:49.081Z,102380.94
2022-08-05T18:15:15.818Z,102366.34
2022-08-05T18:18:00.239Z,102378.13
2022-08-05T18:20:31.858Z,102383.63
2022-08-05T18:23:09.092Z,102381.22
2022-08-05T18:25:38.733Z,102386.72
2022-08-05T18:28:05.948Z,102394.59
2022-08-05T18:30:33.328Z,102402.47
2022-08-05T18:33:01.040Z,102406.00
2022-08-05T18:35:59.829Z,102396.88
2022-08-05T18:38:19.174Z,102404.72
2022-08-05T18:41:56.221Z,102407.41
2022-08-05T18:43:43.191Z,102408.56
2022-08-05T18:46:19.909Z,102409.28
2022-08-05T18:48:51.548Z,102415.13
2022-08-05T18:52:05.821Z,102421.72
2022-08-05T18:54:27.564Z,102420.78
2022-08-05T18:56:57.174Z,102422.28
2022-08-05T18:59:43.995Z,102423.38
2022-08-05T19:02:28.671Z,102426.41
2022-08-05T19:05:03.207Z,102431.41
2022-08-05T19:07:50.138Z,102426.63
2022-08-05T19:10:18.819Z,102432.06
2022-08-05T19:12:53.507Z,102435.91
2022-08-05T19:15:57.581Z,102429.53
2022-08-05T19:18:20.949Z,102443.56
2022-08-05T19:20:53.486Z,102446.63
2022-08-05T19:24:05.010Z,102451.25
2022-08-05T19:26:08.475Z,102459.03
2022-08-05T19:28:41.836Z,102457.25
2022-08-05T19:31:09.618Z,102466.53
2022-08-05T19:33:40.710Z,102460.94
2022-08-05T19:36:16.813Z,102462.38
2022-08-05T19:38:47.665Z,102466.94
2022-08-05T19:41:17.248Z,102471.50
2022-08-05T19:44:06.401Z,102470.91
2022-08-05T19:46:40.022Z,102478.63
2022-08-05T19:49:07.718Z,102484.78
2022-08-05T19:52:13.147Z,102485.09
2022-08-05T19:54:31.447Z,102492.81
2022-08-05T19:57:06.460Z,102488.06
2022-08-05T20:00:01.280Z,102504.41
2022-08-05T20:02:26.339Z,102505.47
2022-08-05T20:04:58.574Z,102512.00
2022-08-05T20:07:47.211Z,102510.72
2022-08-05T20:10:14.209Z,102513.31
2022-08-05T20:12:48.357Z,102513.91
2022-08-05T20:15:48.077Z,102516.16
2022-08-05T20:18:10.252Z,102523.50
2022-08-05T20:20:56.593Z,102527.22
2022-08-05T20:23:39.552Z,102535.34
2022-08-05T20:26:15.986Z,102528.94
2022-08-05T20:28:44.472Z,102532.31
2022-08-05T20:31:11.289Z,102535.78
2022-08-05T20:33:42.414Z,102540.03
2022-08-05T20:36:10.176Z,102537.94
2022-08-05T20:38:37.800Z,102542.19
2022-08-05T20:41:10.324Z,102543.59
2022-08-05T20:43:59.712Z,102553.22
2022-08-05T20:46:29.265Z,102556.63
2022-08-05T20:48:55.696Z,102556.53
2022-08-05T20:51:22.311Z,102557.59
2022-08-05T20:53:56.955Z,102561.03
2022-08-05T20:56:28.729Z,102560.09
2022-08-05T20:59:11.187Z,102569.34
2022-08-05T21:01:41.215Z,102564.84
2022-08-05T21:04:10.991Z,102569.44
2022-08-05T21:06:45.476Z,102566.63
2022-08-05T21:09:14.719Z,102561.41
2022-08-05T21:12:09.931Z,102578.84
2022-08-05T21:14:35.241Z,102564.66
2022-08-05T21:17:04.848Z,102571.59
2022-08-05T21:19:47.354Z,102573.47
2022-08-05T21:22:21.563Z,102574.16
2022-08-05T21:24:51.887Z,102566.22
2022-08-05T21:27:20.431Z,102573.19
2022-08-05T21:29:48.395Z,102574.22
2022-08-05T21:32:18.417Z,102572.53
2022-08-05T21:35:06.931Z,102568.81
2022-08-05T21:37:33.040Z,102568.19
2022-08-05T21:39:59.605Z,102580.50
2022-08-05T21:42:40.959Z,102582.25
2022-08-05T21:45:11.106Z,102589.34
2022-08-05T21:47:56.924Z,102590.59
2022-08-05T21:50:25.045Z,102591.78
2022-08-05T21:52:51.496Z,102591.22
2022-08-05T21:56:01.701Z,102593.16
2022-08-05T21:58:10.509Z,102592.72
2022-08-05T22:00:38.404Z,102596.69
2022-08-05T22:03:06.861Z,102593.94
2022-08-05T22:05:48.133Z,102589.66
2022-08-05T22:08:22.464Z,102592.47
2022-08-05T22:10:51.701Z,102594.63
2022-08-05T22:14:19.826Z,102596.78
2022-08-05T22:16:15.709Z,102600.09
2022-08-05T22:18:52.548Z,102598.06
2022-08-05T22:21:19.953Z,102599.53
2022-08-05T22:24:12.916Z,102610.69
2022-08-05T22:27:11.077Z,102609.19
2022-08-05T22:29:42.994Z,102606.13
2022-08-05T22:32:10.202Z,102619.53
2022-08-05T22:34:36.777Z,102612.25
2022-08-05T22:37:03.815Z,102616.66
2022-08-05T22:39:33.979Z,102627.13
2022-08-05T22:42:12.568Z,102622.13
2022-08-05T22:44:48.645Z,102616.09
2022-08-05T22:47:29.857Z,102631.28
2022-08-05T22:50:19.552Z,102638.09
2022-08-05T22:52:48.930Z,102628.97
2022-08-05T22:55:19.641Z,102634.16
2022-08-05T22:57:49.382Z,102625.72
2022-08-05T23:00:18.408Z,102634.09
2022-08-05T23:02:48.292Z,102636.66
2022-08-05T23:05:15.667Z,102637.16
2022-08-05T23:07:48.385Z,102633.66
2022-08-05T23:10:19.533Z,102647.75
2022-08-05T23:12:47.080Z,102640.75
2022-08-05T23:15:13.651Z,102643.72
2022-08-05T23:18:01.435Z,102644.78
2022-08-05T23:20:31.150Z,102643.06
2022-08-05T23:22:58.626Z,102654.41
2022-08-05T23:25:50.871Z,102653.31
2022-08-05T23:28:13.117Z,102656.22
2022-08-05T23:30:43.774Z,102660.94
2022-08-05T23:33:26.514Z,102661.25
2022-08-05T23:36:05.904Z,102657.88
2022-08-05T23:38:36.487Z,102663.19
2022-08-05T23:41:02.923Z,102667.06
2022-08-05T23:44:04.797Z,102664.56
2022-08-05T23:46:21.118Z,102665.56
2022-08-05T23:49:00.678Z,102674.66
2022-08-05T23:51:53.683Z,102669.22
2022-08-05T23:54:30.284Z,102669.53
2022-08-05T23:57:04.207Z,102670.16
